Time;durP1;ratioP1;P1;durP2;ratioP2;P2;SDS_P1;SDS_P2;PMS_P1;PMS_P2;Temp;Humidity;BMP_temperature;BMP_pressure;BME280_temperature;BME280_humidity;BME280_pressure;Samples;Min_cycle;Max_cycle;Signal;HPM_P1;HPM_P2
2022/07/15 00:01:07;;;;;;;6.80;3.30;;;;;;;;;;6273100;28;20329;-67
2022/07/15 00:04:27;;;;;;;5.67;1.90;;;;;;;;;;6274236;28;20549;-66
2022/07/15 00:07:48;;;;;;;4.10;1.90;;;;;;;;;;6285176;28;20227;-66
2022/07/15 00:11:10;;;;;;;5.23;1.60;;;;;;;;;;6269892;28;20361;-66
2022/07/15 00:14:31;;;;;;;7.33;1.80;;;;;;;;;;6278776;28;20231;-66
2022/07/15 00:17:51;;;;;;;5.80;1.63;;;;;;;;;;6272829;28;20231;-67
2022/07/15 00:21:12;;;;;;;8.50;2.10;;;;;;;;;;6274612;28;20227;-66
2022/07/15 00:24:32;;;;;;;5.63;1.67;;;;;;;;;;6274358;28;20231;-67
2022/07/15 00:27:56;;;;;;;9.90;2.90;;;;;;;;;;6272407;28;20227;-67
2022/07/15 00:31:17;;;;;;;8.20;2.00;;;;;;;;;;6280293;28;20322;-68
2022/07/15 00:34:38;;;;;;;7.77;2.10;;;;;;;;;;6271984;28;20259;-68
2022/07/15 00:37:58;;;;;;;7.47;2.63;;;;;;;;;;6270463;28;20579;-67
2022/07/15 00:41:19;;;;;;;6.03;1.60;;;;;;;;;;6272136;28;20226;-65
2022/07/15 00:44:41;;;;;;;5.10;2.13;;;;;;;;;;6270665;28;20282;-66
2022/07/15 00:48:01;;;;;;;4.47;1.93;;;;;;;;;;6270317;28;20306;-66
2022/07/15 00:51:22;;;;;;;3.20;1.07;;;;;;;;;;6274260;28;20562;-66
2022/07/15 00:54:43;;;;;;;4.23;1.53;;;;;;;;;;6283178;28;20542;-67
2022/07/15 00:58:04;;;;;;;2.77;1.10;;;;;;;;;;6267749;28;22779;-67
2022/07/15 01:01:26;;;;;;;5.50;1.60;;;;;;;;;;6266102;28;20234;-67
2022/07/15 01:04:48;;;;;;;4.93;1.53;;;;;;;;;;6276361;28;20223;-66
2022/07/15 01:08:08;;;;;;;4.73;2.17;;;;;;;;;;6277083;28;20235;-69
2022/07/15 01:11:30;;;;;;;4.17;1.43;;;;;;;;;;6273413;28;20223;-67
2022/07/15 01:14:52;;;;;;;6.87;1.80;;;;;;;;;;6272698;28;20318;-67
2022/07/15 01:18:14;;;;;;;3.97;1.47;;;;;;;;;;6289128;28;20258;-67
2022/07/15 01:21:38;;;;;;;3.43;1.97;;;;;;;;;;6270596;28;20506;-67
2022/07/15 01:24:59;;;;;;;3.23;1.27;;;;;;;;;;6268763;28;20236;-66
2022/07/15 01:28:22;;;;;;;4.93;1.43;;;;;;;;;;6268864;28;20235;-68
2022/07/15 01:31:43;;;;;;;6.90;2.13;;;;;;;;;;6266609;28;20235;-67
2022/07/15 01:35:07;;;;;;;7.27;1.83;;;;;;;;;;6276354;28;20230;-66
2022/07/15 01:38:32;;;;;;;4.63;1.33;;;;;;;;;;6280964;28;20806;-67
2022/07/15 01:41:56;;;;;;;4.80;1.30;;;;;;;;;;6257190;28;20330;-66
2022/07/15 01:45:18;;;;;;;4.27;1.80;;;;;;;;;;6261364;28;20548;-67
2022/07/15 01:52:46;;;;;;;3.13;1.40;;;;;;;;;;6258717;28;20231;-67
2022/07/15 01:56:08;;;;;;;3.63;1.40;;;;;;;;;;6280970;28;20365;-66
2022/07/15 01:59:29;;;;;;;6.07;1.93;;;;;;;;;;6286651;28;20227;-67
2022/07/15 02:02:50;;;;;;;9.13;1.73;;;;;;;;;;6270393;28;20878;-66
2022/07/15 02:06:14;;;;;;;5.50;2.43;;;;;;;;;;6277832;28;20775;-65
2022/07/15 02:09:35;;;;;;;2.20;1.30;;;;;;;;;;6274663;28;20733;-66
2022/07/15 02:12:58;;;;;;;4.83;1.83;;;;;;;;;;6289951;28;20322;-66
2022/07/15 02:16:21;;;;;;;9.30;3.37;;;;;;;;;;6291617;28;20234;-66
2022/07/15 02:19:43;;;;;;;2.87;1.03;;;;;;;;;;6270764;28;20588;-66
2022/07/15 02:23:05;;;;;;;3.80;1.20;;;;;;;;;;6270472;28;20230;-66
2022/07/15 02:26:25;;;;;;;2.83;1.03;;;;;;;;;;6277790;28;20231;-65
2022/07/15 02:29:50;;;;;;;2.83;1.20;;;;;;;;;;6275492;28;20509;-66
2022/07/15 02:33:14;;;;;;;3.90;1.40;;;;;;;;;;6274581;28;20703;-66
2022/07/15 02:36:35;;;;;;;2.17;1.30;;;;;;;;;;6274751;28;20227;-66
2022/07/15 02:39:56;;;;;;;2.93;1.00;;;;;;;;;;6273461;28;21838;-66
2022/07/15 02:43:18;;;;;;;4.27;1.17;;;;;;;;;;6275540;28;20231;-67
2022/07/15 02:46:41;;;;;;;3.07;1.20;;;;;;;;;;6272521;28;20231;-67
2022/07/15 02:50:01;;;;;;;4.83;1.37;;;;;;;;;;6273517;28;20496;-66
2022/07/15 02:53:28;;;;;;;7.17;1.77;;;;;;;;;;6287787;28;20235;-65
2022/07/15 02:56:52;;;;;;;4.37;1.07;;;;;;;;;;6289386;28;20253;-66
2022/07/15 03:00:14;;;;;;;3.43;1.57;;;;;;;;;;6275790;28;20499;-66
2022/07/15 03:03:35;;;;;;;5.03;1.27;;;;;;;;;;6271835;28;20227;-66
2022/07/15 03:06:57;;;;;;;3.50;1.77;;;;;;;;;;6279215;28;20345;-65
2022/07/15 03:10:18;;;;;;;4.50;1.47;;;;;;;;;;6263125;28;20234;-67
2022/07/15 03:13:39;;;;;;;2.73;1.60;;;;;;;;;;6266338;28;20227;-66
2022/07/15 03:16:59;;;;;;;7.40;6.40;;;;;;;;;;6258250;28;20242;-66
2022/07/15 03:20:22;;;;;;;3.27;1.50;;;;;;;;;;6268361;28;20235;-66
2022/07/15 03:23:44;;;;;;;5.50;1.20;;;;;;;;;;6264595;28;20227;-66
2022/07/15 03:27:05;;;;;;;2.63;1.00;;;;;;;;;;6267248;28;20215;-66
2022/07/15 03:30:26;;;;;;;3.30;1.23;;;;;;;;;;6268527;28;22399;-66
2022/07/15 03:33:48;;;;;;;3.53;1.23;;;;;;;;;;6265343;28;20817;-66
2022/07/15 03:37:11;;;;;;;5.10;2.10;;;;;;;;;;6266228;28;20806;-65
2022/07/15 03:40:31;;;;;;;5.27;1.67;;;;;;;;;;6269813;28;20223;-66
2022/07/15 03:43:52;;;;;;;3.10;1.20;;;;;;;;;;6259837;28;20223;-66
2022/07/15 03:47:13;;;;;;;5.40;1.60;;;;;;;;;;6280666;28;20235;-67
2022/07/15 03:50:35;;;;;;;4.23;1.30;;;;;;;;;;6280768;28;20223;-65
2022/07/15 03:53:57;;;;;;;2.90;1.47;;;;;;;;;;6270078;28;20248;-67
2022/07/15 03:57:17;;;;;;;2.70;1.40;;;;;;;;;;6273042;28;20282;-66
2022/07/15 04:00:41;;;;;;;3.40;1.40;;;;;;;;;;6281860;28;20223;-66
2022/07/15 04:04:02;;;;;;;5.23;1.20;;;;;;;;;;6266819;28;22030;-65
2022/07/15 04:07:23;;;;;;;5.33;1.30;;;;;;;;;;6283025;28;20227;-66
2022/07/15 04:10:46;;;;;;;2.60;1.20;;;;;;;;;;6283340;28;20223;-66
2022/07/15 04:14:07;;;;;;;1.47;1.27;;;;;;;;;;6268207;28;20231;-66
2022/07/15 04:17:27;;;;;;;3.27;1.30;;;;;;;;;;6272493;28;20417;-66
2022/07/15 04:20:49;;;;;;;2.90;0.93;;;;;;;;;;6272595;28;20238;-66
2022/07/15 04:24:09;;;;;;;2.87;1.33;;;;;;;;;;6274579;28;20315;-67
2022/07/15 04:27:31;;;;;;;4.30;2.87;;;;;;;;;;6270248;28;20387;-66
2022/07/15 04:30:52;;;;;;;6.60;1.53;;;;;;;;;;6274849;28;20226;-67
2022/07/15 04:34:13;;;;;;;1.97;1.10;;;;;;;;;;6274194;28;20223;-66
2022/07/15 04:37:37;;;;;;;9.23;2.20;;;;;;;;;;6271887;28;20351;-67
2022/07/15 04:40:58;;;;;;;3.60;1.20;;;;;;;;;;6270150;28;20238;-66
2022/07/15 04:44:20;;;;;;;3.80;0.90;;;;;;;;;;6287909;28;20246;-66
2022/07/15 04:47:41;;;;;;;3.53;0.90;;;;;;;;;;6267369;28;20227;-67
2022/07/15 04:51:04;;;;;;;2.30;1.07;;;;;;;;;;6266918;28;20227;-66
2022/07/15 04:54:25;;;;;;;3.70;1.50;;;;;;;;;;6286118;28;20783;-66
2022/07/15 04:57:46;;;;;;;3.93;1.60;;;;;;;;;;6267358;28;20464;-67
2022/07/15 05:01:08;;;;;;;4.33;2.10;;;;;;;;;;6270053;28;20227;-66
2022/07/15 05:04:29;;;;;;;7.67;1.90;;;;;;;;;;6265984;28;20215;-66
2022/07/15 05:07:51;;;;;;;10.50;2.47;;;;;;;;;;6268862;28;20227;-67
2022/07/15 05:11:11;;;;;;;4.67;1.67;;;;;;;;;;6289033;28;20238;-67
2022/07/15 05:14:32;;;;;;;4.27;1.73;;;;;;;;;;6269532;28;20235;-67
2022/07/15 05:17:54;;;;;;;7.20;2.07;;;;;;;;;;6259707;28;20230;-67
2022/07/15 05:21:16;;;;;;;2.23;1.30;;;;;;;;;;6278295;28;20306;-66
2022/07/15 05:24:37;;;;;;;6.70;2.23;;;;;;;;;;6267366;28;20238;-66
2022/07/15 05:27:58;;;;;;;4.97;1.70;;;;;;;;;;6269234;28;20239;-67
2022/07/15 05:31:19;;;;;;;4.80;1.77;;;;;;;;;;6273126;28;20481;-67
2022/07/15 05:34:44;;;;;;;4.27;2.10;;;;;;;;;;6255971;28;20281;-67
2022/07/15 05:38:06;;;;;;;5.37;2.37;;;;;;;;;;6286693;28;20860;-66
2022/07/15 05:41:31;;;;;;;3.57;1.80;;;;;;;;;;6288972;28;20950;-66
2022/07/15 05:44:53;;;;;;;2.47;1.10;;;;;;;;;;6274007;28;21903;-67
2022/07/15 05:48:14;;;;;;;3.27;1.67;;;;;;;;;;6260444;28;20244;-66
2022/07/15 05:51:41;;;;;;;5.20;1.93;;;;;;;;;;6286958;28;20247;-67
2022/07/15 05:55:04;;;;;;;6.83;1.47;;;;;;;;;;6287892;28;20547;-65
2022/07/15 05:58:25;;;;;;;4.00;1.20;;;;;;;;;;6264258;28;20231;-66
2022/07/15 06:01:46;;;;;;;3.17;1.23;;;;;;;;;;6276550;28;20235;-64
2022/07/15 06:05:07;;;;;;;3.57;1.50;;;;;;;;;;6279080;28;20231;-65
2022/07/15 06:08:35;;;;;;;3.57;1.40;;;;;;;;;;6275579;28;20355;-65
2022/07/15 06:11:56;;;;;;;2.47;1.20;;;;;;;;;;6292437;28;20216;-67
2022/07/15 06:15:16;;;;;;;4.63;1.63;;;;;;;;;;6269310;28;20239;-66
2022/07/15 06:18:37;;;;;;;3.37;1.33;;;;;;;;;;6289287;28;20238;-66
2022/07/15 06:21:58;;;;;;;3.23;1.57;;;;;;;;;;6274432;28;20235;-65
2022/07/15 06:25:20;;;;;;;4.23;1.60;;;;;;;;;;6281492;28;20667;-66
2022/07/15 06:28:42;;;;;;;1.93;1.10;;;;;;;;;;6263462;28;20262;-66
2022/07/15 06:32:04;;;;;;;2.97;1.27;;;;;;;;;;6269989;28;20562;-66
2022/07/15 06:35:24;;;;;;;3.20;1.20;;;;;;;;;;6279347;28;20254;-67
2022/07/15 06:38:45;;;;;;;6.43;1.93;;;;;;;;;;6276443;28;20227;-67
2022/07/15 06:42:07;;;;;;;5.47;1.63;;;;;;;;;;6291418;28;20227;-68
2022/07/15 06:45:28;;;;;;;4.13;1.27;;;;;;;;;;6273110;28;20230;-67
2022/07/15 06:48:49;;;;;;;1.80;1.50;;;;;;;;;;6258286;28;20239;-66
2022/07/15 06:52:10;;;;;;;4.47;1.42;;;;;;;;;;6266984;28;20235;-66
2022/07/15 06:55:32;;;;;;;3.40;1.85;;;;;;;;;;6258679;28;20227;-65
2022/07/15 06:58:55;;;;;;;3.10;1.23;;;;;;;;;;6271958;28;20681;-65
2022/07/15 07:02:15;;;;;;;3.05;1.05;;;;;;;;;;6277614;28;20231;-65
2022/07/15 07:05:36;;;;;;;3.70;1.20;;;;;;;;;;6286633;28;20223;-66
2022/07/15 07:08:58;;;;;;;5.65;1.98;;;;;;;;;;6283405;28;20234;-67
2022/07/15 07:12:19;;;;;;;4.45;2.80;;;;;;;;;;6284353;28;20235;-67
2022/07/15 07:15:41;;;;;;;4.28;1.40;;;;;;;;;;6273266;28;20231;-68
2022/07/15 07:19:01;;;;;;;4.03;1.63;;;;;;;;;;6269592;28;20239;-66
2022/07/15 07:22:22;;;;;;;3.67;1.45;;;;;;;;;;6269444;28;20234;-66
2022/07/15 07:25:42;;;;;;;3.77;1.67;;;;;;;;;;6272858;28;20313;-67
2022/07/15 07:29:03;;;;;;;5.87;1.33;;;;;;;;;;6283608;28;20234;-66
2022/07/15 07:32:25;;;;;;;4.73;1.67;;;;;;;;;;6269844;28;20488;-66
2022/07/15 07:35:46;;;;;;;3.17;1.60;;;;;;;;;;6270736;28;20230;-66
2022/07/15 07:39:07;;;;;;;4.67;1.63;;;;;;;;;;6272281;28;20227;-66
2022/07/15 07:42:27;;;;;;;4.63;1.60;;;;;;;;;;6270291;28;20231;-67
2022/07/15 07:45:48;;;;;;;4.90;1.47;;;;;;;;;;6270637;28;20240;-66
2022/07/15 07:49:12;;;;;;;9.00;1.80;;;;;;;;;;6274266;28;20235;-67
2022/07/15 07:52:33;;;;;;;3.67;1.27;;;;;;;;;;6266415;28;20223;-66
2022/07/15 07:55:53;;;;;;;3.00;1.07;;;;;;;;;;6271299;28;20317;-67
2022/07/15 07:59:14;;;;;;;3.33;1.45;;;;;;;;;;6273147;28;20229;-68
2022/07/15 08:02:34;;;;;;;3.30;1.57;;;;;;;;;;6263407;28;20238;-66
2022/07/15 08:05:56;;;;;;;2.10;0.93;;;;;;;;;;6259461;28;20521;-66
2022/07/15 08:09:17;;;;;;;6.77;1.70;;;;;;;;;;6254579;28;20599;-66
2022/07/15 08:12:38;;;;;;;4.60;1.40;;;;;;;;;;6258552;28;20239;-67
2022/07/15 08:15:58;;;;;;;4.90;1.93;;;;;;;;;;6271036;28;20227;-65
2022/07/15 08:19:19;;;;;;;4.13;1.37;;;;;;;;;;6267846;28;20223;-66
2022/07/15 08:22:41;;;;;;;6.03;3.70;;;;;;;;;;6269953;28;20377;-67
2022/07/15 08:26:04;;;;;;;4.53;2.03;;;;;;;;;;6267962;28;20235;-67
2022/07/15 08:29:24;;;;;;;3.60;1.53;;;;;;;;;;6272985;28;20228;-66
2022/07/15 08:32:45;;;;;;;7.87;4.03;;;;;;;;;;6259723;28;20507;-65
2022/07/15 08:36:06;;;;;;;7.07;3.37;;;;;;;;;;6261749;28;20616;-67
2022/07/15 08:39:27;;;;;;;5.30;1.50;;;;;;;;;;6272584;28;20246;-64
2022/07/15 08:42:48;;;;;;;2.67;1.00;;;;;;;;;;6256758;28;20235;-66
2022/07/15 08:46:09;;;;;;;3.65;1.25;;;;;;;;;;6264439;28;20227;-66
2022/07/15 08:49:31;;;;;;;2.10;1.10;;;;;;;;;;6275970;28;20226;-65
2022/07/15 08:52:52;;;;;;;4.43;1.73;;;;;;;;;;6269865;28;20240;-66
2022/07/15 08:56:17;;;;;;;3.63;1.45;;;;;;;;;;6267074;28;20338;-66
2022/07/15 08:59:38;;;;;;;2.67;0.93;;;;;;;;;;6271629;28;20289;-68
2022/07/15 09:02:59;;;;;;;4.00;0.88;;;;;;;;;;6266041;28;20226;-65
2022/07/15 09:06:35;;;;;;;2.25;0.82;;;;;;;;;;6267601;28;20266;-67
2022/07/15 09:09:55;;;;;;;3.95;0.95;;;;;;;;;;6272412;28;20234;-66
2022/07/15 09:13:25;;;;;;;3.15;1.02;;;;;;;;;;6270394;28;20223;-69
2022/07/15 09:16:46;;;;;;;2.80;0.88;;;;;;;;;;6274710;28;20314;-67
2022/07/15 09:20:08;;;;;;;3.15;1.40;;;;;;;;;;6266070;28;20230;-67
2022/07/15 09:23:33;;;;;;;1.52;0.70;;;;;;;;;;6270826;28;20238;-65
2022/07/15 09:26:54;;;;;;;1.85;1.35;;;;;;;;;;6270960;28;20261;-66
2022/07/15 09:33:59;;;;;;;3.85;1.25;;;;;;;;;;6277827;28;20738;-68
2022/07/15 09:37:20;;;;;;;2.05;0.93;;;;;;;;;;6274064;28;20272;-65
2022/07/15 09:40:47;;;;;;;3.40;1.30;;;;;;;;;;6274474;28;20583;-67
2022/07/15 09:44:09;;;;;;;2.80;0.70;;;;;;;;;;6267859;28;20264;-68
2022/07/15 09:47:32;;;;;;;1.95;1.25;;;;;;;;;;6269173;28;20223;-67
2022/07/15 09:50:58;;;;;;;3.03;1.13;;;;;;;;;;6272567;28;20231;-66
2022/07/15 09:54:19;;;;;;;2.90;0.90;;;;;;;;;;6276119;28;20685;-68
2022/07/15 09:57:39;;;;;;;1.50;1.02;;;;;;;;;;6258313;28;20726;-66
2022/07/15 10:01:00;;;;;;;2.30;1.52;;;;;;;;;;6271160;28;20235;-66
2022/07/15 10:04:23;;;;;;;2.70;0.95;;;;;;;;;;6266253;28;20337;-66
2022/07/15 10:07:44;;;;;;;4.53;0.90;;;;;;;;;;6262487;28;20294;-67
2022/07/15 10:11:08;;;;;;;4.10;0.98;;;;;;;;;;6259663;28;20235;-67
2022/07/15 10:14:43;;;;;;;3.17;1.23;;;;;;;;;;6270669;28;20234;-69
2022/07/15 10:18:17;;;;;;;2.08;0.80;;;;;;;;;;6268367;28;20235;-65
2022/07/15 10:21:45;;;;;;;1.27;0.90;;;;;;;;;;6267499;28;20254;-68
2022/07/15 10:25:13;;;;;;;1.45;0.75;;;;;;;;;;6268044;28;20869;-66
2022/07/15 10:28:38;;;;;;;2.30;0.80;;;;;;;;;;6271749;28;20234;-67
2022/07/15 10:31:59;;;;;;;2.22;0.80;;;;;;;;;;6268875;28;20227;-68
2022/07/15 10:35:33;;;;;;;1.30;0.60;;;;;;;;;;6271946;28;20227;-68
2022/07/15 10:39:03;;;;;;;1.95;0.82;;;;;;;;;;6266495;28;20246;-66
2022/07/15 10:42:24;;;;;;;4.57;0.98;;;;;;;;;;6272539;28;20588;-67
2022/07/15 10:45:59;;;;;;;3.67;0.80;;;;;;;;;;6269606;28;20236;-66
2022/07/15 10:49:33;;;;;;;1.70;0.70;;;;;;;;;;6264010;28;20518;-67
2022/07/15 10:53:14;;;;;;;1.30;0.93;;;;;;;;;;6273685;28;20264;-65
2022/07/15 10:56:37;;;;;;;2.38;0.60;;;;;;;;;;6271924;28;20223;-68
2022/07/15 10:59:58;;;;;;;3.22;2.47;;;;;;;;;;6282115;28;20243;-68
2022/07/15 11:03:19;;;;;;;1.20;0.80;;;;;;;;;;6271762;28;20254;-68
2022/07/15 11:06:58;;;;;;;1.10;0.80;;;;;;;;;;6272635;28;20226;-69
2022/07/15 11:10:21;;;;;;;0.52;0.52;;;;;;;;;;6273411;28;20223;-68
2022/07/15 11:13:44;;;;;;;1.25;0.47;;;;;;;;;;6247531;28;20232;-67
2022/07/15 11:17:05;;;;;;;4.35;0.80;;;;;;;;;;6263749;28;20591;-67
2022/07/15 11:20:30;;;;;;;4.43;1.05;;;;;;;;;;6264040;28;20230;-67
2022/07/15 11:23:53;;;;;;;2.22;0.68;;;;;;;;;;6275008;28;21412;-68
2022/07/15 11:27:15;;;;;;;1.75;0.80;;;;;;;;;;6275131;28;20592;-67
2022/07/15 11:30:38;;;;;;;1.42;0.77;;;;;;;;;;6261354;28;20231;-67
2022/07/15 11:33:59;;;;;;;2.05;1.40;;;;;;;;;;6268508;28;20235;-69
2022/07/15 11:37:23;;;;;;;3.80;1.13;;;;;;;;;;6271691;28;20223;-68
2022/07/15 11:44:32;;;;;;;2.25;0.98;;;;;;;;;;6266619;28;20238;-68
2022/07/15 11:47:54;;;;;;;4.07;1.67;;;;;;;;;;6260564;28;20230;-68
2022/07/15 11:51:15;;;;;;;1.50;0.75;;;;;;;;;;6269284;28;20660;-68
2022/07/15 11:54:36;;;;;;;4.20;1.77;;;;;;;;;;6271005;28;20231;-69
2022/07/15 11:57:57;;;;;;;1.45;0.85;;;;;;;;;;6267867;28;21098;-68
2022/07/15 12:01:18;;;;;;;1.08;0.73;;;;;;;;;;6269008;28;20235;-68
2022/07/15 12:04:41;;;;;;;2.72;0.55;;;;;;;;;;6256399;28;20231;-68
2022/07/15 12:08:02;;;;;;;1.55;0.70;;;;;;;;;;6254764;28;20613;-67
2022/07/15 12:11:24;;;;;;;2.10;0.70;;;;;;;;;;6269966;28;20243;-68
2022/07/15 12:14:47;;;;;;;1.95;0.73;;;;;;;;;;6267849;28;20579;-68
2022/07/15 12:18:08;;;;;;;0.63;0.60;;;;;;;;;;6271134;28;21554;-69
2022/07/15 12:21:31;;;;;;;2.78;0.70;;;;;;;;;;6268852;28;20231;-68
2022/07/15 12:24:52;;;;;;;2.15;1.13;;;;;;;;;;6264136;28;20683;-69
2022/07/15 12:28:13;;;;;;;1.67;0.50;;;;;;;;;;6259479;28;20234;-68
2022/07/15 12:31:34;;;;;;;1.83;1.42;;;;;;;;;;6258194;28;20485;-68
2022/07/15 12:34:56;;;;;;;3.00;0.70;;;;;;;;;;6262869;28;20342;-68
2022/07/15 12:38:27;;;;;;;1.95;0.80;;;;;;;;;;6262536;28;20505;-67
2022/07/15 12:42:00;;;;;;;0.93;0.73;;;;;;;;;;6251495;28;20644;-66
2022/07/15 12:45:22;;;;;;;1.70;0.77;;;;;;;;;;6262550;28;20795;-68
2022/07/15 12:48:46;;;;;;;1.58;0.88;;;;;;;;;;6256491;28;20896;-67
2022/07/15 12:52:14;;;;;;;1.50;0.60;;;;;;;;;;6259054;28;20227;-66
2022/07/15 12:55:41;;;;;;;3.38;1.27;;;;;;;;;;6256208;28;20745;-66
2022/07/15 12:59:01;;;;;;;3.08;0.80;;;;;;;;;;6264405;28;20550;-67
2022/07/15 13:02:23;;;;;;;2.30;0.80;;;;;;;;;;6258303;28;20330;-69
2022/07/15 13:05:45;;;;;;;2.38;0.88;;;;;;;;;;6259718;28;20234;-73
2022/07/15 13:09:06;;;;;;;1.23;0.80;;;;;;;;;;6252948;28;20743;-69
2022/07/15 13:12:28;;;;;;;2.42;1.85;;;;;;;;;;6249673;28;20227;-70
2022/07/15 13:15:48;;;;;;;2.70;1.10;;;;;;;;;;6264727;28;20491;-70
2022/07/15 13:19:09;;;;;;;3.97;1.70;;;;;;;;;;6234632;28;20232;-68
2022/07/15 13:22:30;;;;;;;1.92;1.10;;;;;;;;;;6228903;28;20227;-69
2022/07/15 13:25:53;;;;;;;2.78;0.90;;;;;;;;;;6254833;28;20620;-70
2022/07/15 13:29:15;;;;;;;3.83;0.80;;;;;;;;;;6269982;28;20255;-68
2022/07/15 13:32:36;;;;;;;4.03;0.70;;;;;;;;;;6270714;28;20226;-68
2022/07/15 13:35:57;;;;;;;2.25;0.95;;;;;;;;;;6268149;28;20231;-68
2022/07/15 13:39:17;;;;;;;1.30;0.70;;;;;;;;;;6262712;28;20231;-69
2022/07/15 13:42:38;;;;;;;2.08;0.90;;;;;;;;;;6265831;28;20261;-68
2022/07/15 13:46:00;;;;;;;2.60;1.02;;;;;;;;;;6264197;28;20386;-68
2022/07/15 13:51:22;;;;;;;5.45;2.20;;;;;;;;;;6270272;28;20628;-68
2022/07/15 13:53:00;;;;;;;2.72;1.23;;;;;;;;;;6272602;28;20239;-69
2022/07/15 13:56:21;;;;;;;1.88;0.60;;;;;;;;;;6268868;28;20596;-68
2022/07/15 13:59:42;;;;;;;4.13;1.05;;;;;;;;;;6254032;28;20219;-68
2022/07/15 14:03:04;;;;;;;3.60;2.00;;;;;;;;;;6267819;28;20231;-69
2022/07/15 14:06:25;;;;;;;1.90;1.00;;;;;;;;;;6257544;28;20819;-68
2022/07/15 14:09:45;;;;;;;1.27;0.88;;;;;;;;;;6254272;28;20223;-69
2022/07/15 14:13:06;;;;;;;3.35;0.85;;;;;;;;;;6253144;28;20231;-66
2022/07/15 14:16:26;;;;;;;2.13;0.80;;;;;;;;;;6250381;28;20511;-65
2022/07/15 14:19:48;;;;;;;1.98;0.90;;;;;;;;;;6272135;28;20318;-66
2022/07/15 14:23:09;;;;;;;2.78;0.50;;;;;;;;;;6276684;28;20232;-66
2022/07/15 14:26:29;;;;;;;2.92;0.80;;;;;;;;;;6277558;28;20231;-65
2022/07/15 14:29:50;;;;;;;2.05;0.50;;;;;;;;;;6275838;28;20268;-65
2022/07/15 14:33:10;;;;;;;3.38;0.55;;;;;;;;;;6280566;28;20479;-65
2022/07/15 14:36:32;;;;;;;1.75;0.52;;;;;;;;;;6271541;28;20231;-65
2022/07/15 14:39:53;;;;;;;1.58;0.68;;;;;;;;;;6275847;28;20231;-65
2022/07/15 14:43:13;;;;;;;0.90;0.50;;;;;;;;;;6276701;28;20230;-65
2022/07/15 14:46:33;;;;;;;0.95;0.52;;;;;;;;;;6281570;28;20239;-65
2022/07/15 14:49:54;;;;;;;2.13;1.08;;;;;;;;;;6271812;28;20235;-65
2022/07/15 14:53:16;;;;;;;2.58;1.02;;;;;;;;;;6268243;28;20239;-65
2022/07/15 14:56:37;;;;;;;2.33;0.75;;;;;;;;;;6270036;28;20238;-66
2022/07/15 14:59:58;;;;;;;1.80;0.50;;;;;;;;;;6272566;28;21036;-65
2022/07/15 15:03:18;;;;;;;6.60;1.60;;;;;;;;;;6271888;28;20227;-66
2022/07/15 15:06:39;;;;;;;3.20;0.75;;;;;;;;;;6270185;28;20227;-66
2022/07/15 15:10:01;;;;;;;2.13;0.70;;;;;;;;;;6271941;28;20247;-65
2022/07/15 15:13:22;;;;;;;2.33;0.60;;;;;;;;;;6269238;28;20227;-65
2022/07/15 15:16:43;;;;;;;2.90;0.65;;;;;;;;;;6270107;28;20703;-65
2022/07/15 15:20:06;;;;;;;0.95;0.88;;;;;;;;;;6263309;28;20250;-65
2022/07/15 15:23:27;;;;;;;1.30;0.40;;;;;;;;;;6269492;28;20239;-65
2022/07/15 15:26:50;;;;;;;3.70;0.70;;;;;;;;;;6280496;28;20227;-65
2022/07/15 15:30:11;;;;;;;1.98;0.73;;;;;;;;;;6274065;28;20330;-65
2022/07/15 15:33:31;;;;;;;2.45;1.05;;;;;;;;;;6266474;28;20565;-65
2022/07/15 15:36:52;;;;;;;1.10;0.80;;;;;;;;;;6270643;28;20309;-65
2022/07/15 15:40:13;;;;;;;1.00;0.52;;;;;;;;;;6272699;28;20223;-65
2022/07/15 15:43:35;;;;;;;2.00;0.93;;;;;;;;;;6274705;28;20227;-65
2022/07/15 15:46:55;;;;;;;2.85;0.95;;;;;;;;;;6274708;28;20227;-64
2022/07/15 15:50:17;;;;;;;2.92;1.08;;;;;;;;;;6271832;28;20227;-65
2022/07/15 15:53:38;;;;;;;1.00;0.55;;;;;;;;;;6268187;28;20271;-65
2022/07/15 15:56:58;;;;;;;2.35;0.55;;;;;;;;;;6269053;28;20243;-66
2022/07/15 16:00:21;;;;;;;1.15;0.88;;;;;;;;;;6265532;28;20613;-66
2022/07/15 16:03:42;;;;;;;1.20;1.10;;;;;;;;;;6264080;28;20277;-70
2022/07/15 16:07:03;;;;;;;0.88;0.82;;;;;;;;;;6261339;28;20234;-71
2022/07/15 16:10:23;;;;;;;0.85;0.57;;;;;;;;;;6272702;28;20246;-71
2022/07/15 16:13:44;;;;;;;1.58;0.52;;;;;;;;;;6265143;28;20227;-71
2022/07/15 16:17:06;;;;;;;1.23;0.40;;;;;;;;;;6265914;28;20226;-70
2022/07/15 16:20:27;;;;;;;1.88;0.90;;;;;;;;;;6269479;28;20226;-71
2022/07/15 16:23:47;;;;;;;1.73;1.35;;;;;;;;;;6267780;28;20227;-70
2022/07/15 16:27:08;;;;;;;1.55;0.70;;;;;;;;;;6264969;28;20333;-71
2022/07/15 16:30:29;;;;;;;0.93;0.85;;;;;;;;;;6264547;28;20230;-71
2022/07/15 16:33:50;;;;;;;2.63;0.63;;;;;;;;;;6236444;28;20245;-70
2022/07/15 16:37:11;;;;;;;1.05;0.32;;;;;;;;;;6235538;28;20220;-71
2022/07/15 16:40:32;;;;;;;1.40;0.82;;;;;;;;;;6245696;28;20231;-70
2022/07/15 16:43:53;;;;;;;1.52;0.68;;;;;;;;;;6264817;28;20223;-71
2022/07/15 16:47:13;;;;;;;1.95;0.90;;;;;;;;;;6259849;28;20357;-71
2022/07/15 16:50:36;;;;;;;1.33;0.60;;;;;;;;;;6269141;28;20231;-71
2022/07/15 16:53:56;;;;;;;2.17;1.35;;;;;;;;;;6262903;28;21312;-71
2022/07/15 16:57:17;;;;;;;1.73;1.10;;;;;;;;;;6253918;28;20770;-71
2022/07/15 17:00:37;;;;;;;0.85;0.32;;;;;;;;;;6269562;28;20231;-71
2022/07/15 17:03:58;;;;;;;1.90;0.70;;;;;;;;;;6267533;28;20259;-71
2022/07/15 17:07:20;;;;;;;2.55;0.68;;;;;;;;;;6263646;28;20234;-70
2022/07/15 17:10:41;;;;;;;5.50;1.20;;;;;;;;;;6263191;28;20223;-71
2022/07/15 17:14:01;;;;;;;0.90;0.40;;;;;;;;;;6261713;28;20627;-70
2022/07/15 17:17:21;;;;;;;4.18;0.70;;;;;;;;;;6264475;28;20600;-70
2022/07/15 17:20:42;;;;;;;2.45;0.70;;;;;;;;;;6266748;28;20223;-71
2022/07/15 17:24:04;;;;;;;1.83;0.60;;;;;;;;;;6271281;28;20599;-71
2022/07/15 17:27:25;;;;;;;1.27;0.70;;;;;;;;;;6270333;28;20759;-72
2022/07/15 17:30:46;;;;;;;2.13;0.60;;;;;;;;;;6276898;28;20231;-71
2022/07/15 17:34:06;;;;;;;1.58;0.50;;;;;;;;;;6262697;28;20326;-76
2022/07/15 17:37:27;;;;;;;1.35;0.47;;;;;;;;;;6274653;28;20303;-70
2022/07/15 17:40:49;;;;;;;2.28;1.38;;;;;;;;;;6280389;28;20234;-71
2022/07/15 17:44:10;;;;;;;1.20;0.80;;;;;;;;;;6272115;28;20562;-79
2022/07/15 17:47:30;;;;;;;3.60;0.55;;;;;;;;;;6267063;28;20254;-73
2022/07/15 17:50:51;;;;;;;1.95;0.63;;;;;;;;;;6272105;28;20239;-71
2022/07/15 17:54:11;;;;;;;1.58;1.15;;;;;;;;;;6244857;28;20793;-72
2022/07/15 17:57:33;;;;;;;2.63;1.17;;;;;;;;;;6256378;28;20227;-71
2022/07/15 18:00:54;;;;;;;1.60;1.20;;;;;;;;;;6264254;28;20601;-71
2022/07/15 18:04:14;;;;;;;3.03;0.60;;;;;;;;;;6262719;28;20227;-71
2022/07/15 18:07:35;;;;;;;0.80;0.60;;;;;;;;;;6250184;28;20570;-72
2022/07/15 18:10:55;;;;;;;3.92;0.95;;;;;;;;;;6262155;28;20254;-71
2022/07/15 18:14:17;;;;;;;3.72;1.15;;;;;;;;;;6268930;28;20227;-73
2022/07/15 18:17:37;;;;;;;3.10;0.80;;;;;;;;;;6263967;28;20373;-72
2022/07/15 18:20:58;;;;;;;1.17;0.95;;;;;;;;;;6264157;28;20227;-72
2022/07/15 18:24:18;;;;;;;3.38;1.00;;;;;;;;;;6252354;28;20232;-73
2022/07/15 18:27:39;;;;;;;4.15;1.77;;;;;;;;;;6250061;28;20230;-71
2022/07/15 18:31:01;;;;;;;4.43;1.55;;;;;;;;;;6265851;28;20223;-72
2022/07/15 18:34:22;;;;;;;2.78;1.30;;;;;;;;;;6278447;28;20239;-71
2022/07/15 18:37:42;;;;;;;1.42;0.88;;;;;;;;;;6240940;28;20231;-66
2022/07/15 18:41:04;;;;;;;2.97;1.40;;;;;;;;;;6256426;28;20235;-68
2022/07/15 18:44:25;;;;;;;3.17;1.02;;;;;;;;;;6267681;28;20226;-67
2022/07/15 18:47:47;;;;;;;3.60;0.93;;;;;;;;;;6259885;28;20246;-68
2022/07/15 18:51:08;;;;;;;3.63;0.73;;;;;;;;;;6274099;28;20321;-68
2022/07/15 18:54:29;;;;;;;1.42;0.70;;;;;;;;;;6276938;28;20290;-68
2022/07/15 18:57:49;;;;;;;0.90;0.70;;;;;;;;;;6272601;28;20218;-68
2022/07/15 19:01:10;;;;;;;2.70;1.58;;;;;;;;;;6271669;28;20227;-68
2022/07/15 19:04:32;;;;;;;1.92;1.30;;;;;;;;;;6279862;28;20247;-67
2022/07/15 19:07:53;;;;;;;1.63;0.50;;;;;;;;;;6274537;28;20234;-68
2022/07/15 19:11:14;;;;;;;1.73;1.10;;;;;;;;;;6270847;28;20223;-68
2022/07/15 19:14:34;;;;;;;1.38;0.80;;;;;;;;;;6275682;28;20614;-68
2022/07/15 19:17:55;;;;;;;0.63;0.63;;;;;;;;;;6276704;28;20231;-68
2022/07/15 19:21:17;;;;;;;3.10;1.15;;;;;;;;;;6279719;28;20231;-68
2022/07/15 19:24:38;;;;;;;1.67;0.75;;;;;;;;;;6279197;28;21052;-67
2022/07/15 19:27:59;;;;;;;3.42;0.60;;;;;;;;;;6276999;28;20231;-67
2022/07/15 19:31:20;;;;;;;1.77;1.00;;;;;;;;;;6275546;28;20231;-68
2022/07/15 19:34:41;;;;;;;2.65;1.95;;;;;;;;;;6273270;28;20278;-67
2022/07/15 19:38:03;;;;;;;3.25;2.72;;;;;;;;;;6272876;28;20238;-67
2022/07/15 19:41:24;;;;;;;8.45;7.63;;;;;;;;;;6271643;28;20742;-68
2022/07/15 19:44:44;;;;;;;7.82;6.28;;;;;;;;;;6278008;28;20215;-68
2022/07/15 19:48:05;;;;;;;7.28;5.15;;;;;;;;;;6272144;28;20530;-68
2022/07/15 19:51:26;;;;;;;1.52;1.08;;;;;;;;;;6274960;28;20238;-68
2022/07/15 19:54:48;;;;;;;12.50;11.20;;;;;;;;;;6274366;28;20223;-69
2022/07/15 19:58:08;;;;;;;3.92;3.47;;;;;;;;;;6269213;28;20231;-68
2022/07/15 20:01:29;;;;;;;10.10;9.18;;;;;;;;;;6266247;28;20219;-67
2022/07/15 20:04:49;;;;;;;2.35;1.67;;;;;;;;;;6277072;28;20230;-67
2022/07/15 20:08:10;;;;;;;2.25;1.45;;;;;;;;;;6279799;28;20317;-68
2022/07/15 20:11:32;;;;;;;4.78;3.72;;;;;;;;;;6273116;28;20219;-68
2022/07/15 20:14:53;;;;;;;2.45;1.05;;;;;;;;;;6275432;28;20228;-67
2022/07/15 20:18:14;;;;;;;10.25;8.07;;;;;;;;;;6280552;28;20234;-68
2022/07/15 20:21:37;;;;;;;2.70;2.50;;;;;;;;;;6276108;28;20326;-67